createdAt,value
2018-11-03T00:01:18.271Z,1018.42
2018-11-03T00:02:18.286Z,1018.41
2018-11-03T00:04:11.237Z,1018.44
2018-11-03T00:05:11.203Z,1018.47
2018-11-03T00:07:04.113Z,1018.45
2018-11-03T00:08:04.123Z,1018.46
2018-11-03T00:09:57.148Z,1018.48
2018-11-03T00:10:57.043Z,1018.49
2018-11-03T00:12:49.989Z,1018.55
2018-11-03T00:13:49.963Z,1018.51
2018-11-03T00:15:42.913Z,1018.53
2018-11-03T00:16:42.880Z,1018.57
2018-11-03T00:18:35.791Z,1018.58
2018-11-03T00:19:35.802Z,1018.61
2018-11-03T00:21:28.756Z,1018.61
2018-11-03T00:22:28.826Z,1018.63
2018-11-03T00:24:21.634Z,1018.65
2018-11-03T00:25:21.645Z,1018.66
2018-11-03T00:27:14.669Z,1018.68
2018-11-03T00:28:14.569Z,1018.69
2018-11-03T00:30:07.480Z,1018.68
2018-11-03T00:31:07.487Z,1018.70
2018-11-03T00:33:00.449Z,1018.70
2018-11-03T00:34:00.409Z,1018.75
2018-11-03T00:35:53.322Z,1018.77
2018-11-03T00:36:53.336Z,1018.78
2018-11-03T00:38:46.289Z,1018.80
2018-11-03T00:39:46.260Z,1018.77
2018-11-03T00:41:39.166Z,1018.83
2018-11-03T00:42:39.211Z,1018.87
2018-11-03T00:44:32.266Z,1018.93
2018-11-03T00:45:32.093Z,1018.90
2018-11-03T00:47:25.006Z,1018.93
2018-11-03T00:48:25.028Z,1018.94
2018-11-03T00:50:17.968Z,1018.96
2018-11-03T00:51:17.930Z,1018.96
2018-11-03T00:53:10.838Z,1018.94
2018-11-03T00:54:10.850Z,1018.98
2018-11-03T00:56:03.801Z,1019.01
2018-11-03T00:57:03.770Z,1019.02
2018-11-03T00:58:56.677Z,1019.03
2018-11-03T00:59:56.690Z,1019.04
2018-11-03T01:01:49.712Z,1019.02
2018-11-03T01:02:49.632Z,1019.03
2018-11-03T01:04:42.635Z,1019.08
2018-11-03T01:05:42.651Z,1019.07
2018-11-03T01:07:35.711Z,1019.10
2018-11-03T01:08:35.562Z,1019.10
2018-11-03T01:10:28.650Z,1019.12
2018-11-03T01:11:28.480Z,1019.13
2018-11-03T01:13:21.468Z,1019.17
2018-11-03T01:14:21.428Z,1019.17
2018-11-03T01:16:14.345Z,1019.16
2018-11-03T01:17:14.351Z,1019.18
2018-11-03T01:19:07.374Z,1019.19
2018-11-03T01:20:07.273Z,1019.21
2018-11-03T01:22:00.180Z,1019.20
2018-11-03T01:23:00.192Z,1019.24
2018-11-03T01:24:53.147Z,1019.27
2018-11-03T01:25:53.136Z,1019.27
2018-11-03T01:27:46.041Z,1019.25
2018-11-03T01:28:46.053Z,1019.19
2018-11-03T01:30:39.003Z,1019.22
2018-11-03T01:31:38.968Z,1019.25
2018-11-03T01:33:31.911Z,1019.22
2018-11-03T01:34:31.894Z,1019.19
2018-11-03T01:36:24.917Z,1019.26
2018-11-03T01:37:24.816Z,1019.26
2018-11-03T01:39:17.727Z,1019.26
2018-11-03T01:40:17.738Z,1019.26
2018-11-03T01:42:10.699Z,1019.30
2018-11-03T01:43:10.672Z,1019.27
2018-11-03T01:45:03.562Z,1019.30
2018-11-03T01:46:03.574Z,1019.30
2018-11-03T01:47:56.537Z,1019.30
2018-11-03T01:48:56.520Z,1019.26
2018-11-03T01:50:49.413Z,1019.29
2018-11-03T01:51:49.432Z,1019.30
2018-11-03T01:54:03.451Z,1019.30
2018-11-03T01:54:42.345Z,1019.33
2018-11-03T01:56:35.253Z,1019.34
2018-11-03T01:57:35.264Z,1019.35
2018-11-03T01:59:28.221Z,1019.35
2018-11-03T02:00:28.186Z,1019.37
2018-11-03T02:02:21.101Z,1019.33
2018-11-03T02:03:21.129Z,1019.38
2018-11-03T02:05:35.073Z,1019.41
2018-11-03T02:06:14.031Z,1019.39
2018-11-03T02:08:06.948Z,1019.43
2018-11-03T02:09:06.961Z,1019.41
2018-11-03T02:11:01.212Z,1019.46
2018-11-03T02:12:00.954Z,1019.46
2018-11-03T02:13:53.860Z,1019.45
2018-11-03T02:14:53.872Z,1019.45
2018-11-03T02:16:46.830Z,1019.46
2018-11-03T02:17:46.792Z,1019.47
2018-11-03T02:19:39.702Z,1019.47
2018-11-03T02:20:39.752Z,1019.52
2018-11-03T02:22:32.679Z,1019.48
2018-11-03T02:23:32.642Z,1019.54
2018-11-03T02:25:25.566Z,1019.52
2018-11-03T02:26:25.565Z,1019.56
2018-11-03T02:28:18.592Z,1019.55
2018-11-03T02:29:18.488Z,1019.55
2018-11-03T02:31:11.414Z,1019.47
2018-11-03T02:32:11.414Z,1019.53
2018-11-03T02:34:04.383Z,1019.51
2018-11-03T02:35:04.334Z,1019.54
2018-11-03T02:36:57.238Z,1019.54
2018-11-03T02:37:57.250Z,1019.56
2018-11-03T02:39:50.206Z,1019.58
2018-11-03T02:40:50.171Z,1019.53
2018-11-03T02:42:43.135Z,1019.52
2018-11-03T02:43:43.096Z,1019.54
2018-11-03T02:45:57.124Z,1019.47
2018-11-03T02:46:36.020Z,1019.48
2018-11-03T02:48:28.953Z,1019.43
2018-11-03T02:49:28.954Z,1019.43
2018-11-03T02:51:21.913Z,1019.39
2018-11-03T02:52:21.881Z,1019.39
2018-11-03T02:54:14.797Z,1019.40
2018-11-03T02:55:14.808Z,1019.40
2018-11-03T02:57:07.912Z,1019.37
2018-11-03T02:58:07.733Z,1019.39
2018-11-03T03:00:01.631Z,1019.35
2018-11-03T03:01:01.650Z,1019.33
2018-11-03T03:02:54.703Z,1019.31
2018-11-03T03:03:54.593Z,1019.27
2018-11-03T03:05:47.487Z,1019.25
2018-11-03T03:06:47.506Z,1019.25
2018-11-03T03:08:40.480Z,1019.21
2018-11-03T03:09:40.442Z,1019.21
2018-11-03T03:11:33.333Z,1019.17
2018-11-03T03:12:33.348Z,1019.13
2018-11-03T03:14:26.323Z,1019.11
2018-11-03T03:15:26.288Z,1019.13
2018-11-03T03:17:19.193Z,1019.10
2018-11-03T03:18:19.238Z,1019.07
2018-11-03T03:20:12.234Z,1019.08
2018-11-03T03:21:12.134Z,1019.07
2018-11-03T03:23:05.047Z,1019.03
2018-11-03T03:24:05.077Z,1019.01
2018-11-03T03:26:19.023Z,1018.99
2018-11-03T03:26:57.984Z,1018.98
2018-11-03T03:28:50.967Z,1018.93
2018-11-03T03:29:50.941Z,1018.95
2018-11-03T03:31:43.898Z,1018.88
2018-11-03T03:32:43.852Z,1018.85
2018-11-03T03:34:36.760Z,1018.78
2018-11-03T03:35:36.777Z,1018.78
2018-11-03T03:37:29.796Z,1018.73
2018-11-03T03:38:29.703Z,1018.72
2018-11-03T03:40:22.608Z,1018.68
2018-11-03T03:41:22.639Z,1018.69
2018-11-03T03:43:15.604Z,1018.65
2018-11-03T03:44:15.571Z,1018.65
2018-11-03T03:46:08.490Z,1018.61
2018-11-03T03:47:08.501Z,1018.60
2018-11-03T03:49:01.457Z,1018.55
2018-11-03T03:50:01.430Z,1018.51
2018-11-03T03:51:54.395Z,1018.46
2018-11-03T03:52:54.404Z,1018.44
2018-11-03T03:55:08.513Z,1018.40
2018-11-03T03:55:47.339Z,1018.41
2018-11-03T03:57:40.251Z,1018.32
2018-11-03T03:58:40.275Z,1018.32
2018-11-03T04:00:33.231Z,1018.27
2018-11-03T04:01:33.198Z,1018.26
2018-11-03T04:03:26.120Z,1018.24
2018-11-03T04:04:26.135Z,1018.19
2018-11-03T04:07:50.713Z,1018.13
2018-11-03T04:08:50.682Z,1018.11
2018-11-03T04:10:43.590Z,1018.11
2018-11-03T04:11:43.607Z,1018.06
2018-11-03T04:15:08.255Z,1018.04
2018-11-03T04:16:08.136Z,1017.99
2018-11-03T04:18:01.047Z,1017.94
2018-11-03T04:19:01.063Z,1017.95
2018-11-03T04:23:57.322Z,1017.85
2018-11-03T04:24:57.207Z,1017.82
2018-11-03T04:26:50.125Z,1017.80
2018-11-03T04:27:50.139Z,1017.79
2018-11-03T04:32:46.268Z,1017.75
2018-11-03T04:33:46.282Z,1017.71
2018-11-03T04:35:39.198Z,1017.67
2018-11-03T04:36:39.213Z,1017.65
2018-11-03T04:40:24.791Z,1017.57
2018-11-03T04:41:03.744Z,1017.56
2018-11-03T04:42:56.660Z,1017.57
2018-11-03T04:43:56.674Z,1017.55
2018-11-03T04:46:10.657Z,1017.46
2018-11-03T04:46:49.605Z,1017.46
2018-11-03T04:48:42.521Z,1017.41
2018-11-03T04:49:42.533Z,1017.42
2018-11-03T04:54:59.775Z,1017.31
2018-11-03T04:55:38.752Z,1017.32
2018-11-03T04:57:31.663Z,1017.26
2018-11-03T04:58:31.704Z,1017.25
2018-11-03T05:00:45.647Z,1017.19
2018-11-03T05:01:24.603Z,1017.15
2018-11-03T05:03:17.518Z,1017.13
2018-11-03T05:04:17.545Z,1017.14
2018-11-03T05:06:10.501Z,1017.11
2018-11-03T05:07:10.470Z,1017.10
2018-11-03T05:09:03.380Z,1017.04
2018-11-03T05:10:03.555Z,1017.03
2018-11-03T11:38:17.439Z,1014.81
2018-11-03T11:39:16.396Z,1014.84
2018-11-03T11:41:09.336Z,1014.88
2018-11-03T11:42:09.328Z,1014.89
2018-11-03T11:44:02.287Z,1014.93
2018-11-03T11:45:02.257Z,1014.95
2018-11-03T11:46:55.174Z,1015.00
2018-11-03T11:47:55.186Z,1015.00
2018-11-03T11:49:48.207Z,1015.03
2018-11-03T11:50:48.115Z,1015.08
2018-11-03T11:52:41.036Z,1015.07
2018-11-03T11:53:41.050Z,1015.09
2018-11-03T11:55:34.277Z,1015.12
2018-11-03T11:56:34.176Z,1015.16
2018-11-03T11:58:27.096Z,1015.15
2018-11-03T11:59:27.116Z,1015.14
2018-11-03T12:01:41.074Z,1015.17
2018-11-03T12:02:20.090Z,1015.19
2018-11-03T12:04:13.929Z,1015.24
2018-11-03T12:05:13.947Z,1015.25
2018-11-03T12:07:06.951Z,1015.27
2018-11-03T12:08:06.896Z,1015.28
2018-11-03T12:09:59.847Z,1015.30
2018-11-03T12:10:59.840Z,1015.33
2018-11-03T12:14:45.524Z,1015.37
2018-11-03T12:15:24.381Z,1015.43
2018-11-03T12:17:17.295Z,1015.45
2018-11-03T12:18:17.308Z,1015.51
2018-11-03T12:20:10.286Z,1015.48
2018-11-03T12:21:10.255Z,1015.51
2018-11-03T12:23:03.170Z,1015.53
2018-11-03T12:24:03.183Z,1015.52
2018-11-03T12:25:56.152Z,1015.53
2018-11-03T12:26:56.109Z,1015.57
2018-11-03T12:28:49.023Z,1015.53
2018-11-03T12:29:49.050Z,1015.55
2018-11-03T12:33:34.573Z,1015.62
2018-11-03T12:34:13.612Z,1015.58
2018-11-03T12:36:06.497Z,1015.62
2018-11-03T12:37:06.509Z,1015.65
2018-11-03T12:38:59.468Z,1015.66
2018-11-03T12:39:59.437Z,1015.69
2018-11-03T12:41:52.350Z,1015.70
2018-11-03T12:42:52.365Z,1015.72
2018-11-03T12:44:45.327Z,1015.76
2018-11-03T12:45:45.295Z,1015.75
2018-11-03T12:47:38.212Z,1015.79
2018-11-03T12:48:38.229Z,1015.81
2018-11-03T12:49:38.242Z,1015.85
2018-11-03T12:50:38.261Z,1015.81
2018-11-03T12:51:38.279Z,1015.86
2018-11-03T12:52:38.303Z,1015.83
2018-11-03T12:53:38.317Z,1015.87
2018-11-03T12:54:38.337Z,1015.84
2018-11-03T12:55:38.353Z,1015.87
2018-11-03T12:56:38.372Z,1015.89
2018-11-03T12:57:38.414Z,1015.87
2018-11-03T12:58:38.409Z,1015.91
2018-11-03T12:59:38.431Z,1015.91
2018-11-03T13:00:38.450Z,1015.93
2018-11-03T13:01:38.466Z,1015.94
2018-11-03T13:02:38.486Z,1015.95
2018-11-03T13:03:38.508Z,1015.99
2018-11-03T13:04:38.522Z,1016.01
2018-11-03T13:05:38.539Z,1016.00
2018-11-03T13:06:38.560Z,1016.02
2018-11-03T13:07:38.578Z,1016.06
2018-11-03T13:08:38.615Z,1016.10
2018-11-03T13:09:38.710Z,1016.12
2018-11-03T13:10:38.637Z,1016.12
2018-11-03T13:11:38.650Z,1016.16
2018-11-03T13:12:38.688Z,1016.19
2018-11-03T13:13:38.689Z,1016.25
2018-11-03T13:14:38.707Z,1016.21
2018-11-03T13:15:38.769Z,1016.29
2018-11-03T13:16:38.745Z,1016.33
2018-11-03T13:17:38.763Z,1016.35
2018-11-03T13:18:38.780Z,1016.37
2018-11-03T13:19:38.798Z,1016.36
2018-11-03T13:20:38.821Z,1016.40
2018-11-03T13:21:38.838Z,1016.42
2018-11-03T13:22:38.905Z,1016.47
2018-11-03T13:23:38.873Z,1016.44
2018-11-03T13:24:38.891Z,1016.50
2018-11-03T13:25:38.911Z,1016.49
2018-11-03T13:26:38.930Z,1016.54
2018-11-03T13:27:38.946Z,1016.52
2018-11-03T13:28:38.966Z,1016.55
2018-11-03T13:29:38.985Z,1016.54
2018-11-03T13:30:39.002Z,1016.53
2018-11-03T13:31:39.033Z,1016.58
2018-11-03T13:32:39.045Z,1016.53
2018-11-03T13:33:39.059Z,1016.54
2018-11-03T13:34:39.081Z,1016.55
2018-11-03T13:35:39.102Z,1016.57
2018-11-03T13:36:39.113Z,1016.59
2018-11-03T13:37:39.141Z,1016.56
2018-11-03T13:38:39.151Z,1016.59
2018-11-03T13:39:39.173Z,1016.55
2018-11-03T13:40:39.199Z,1016.63
2018-11-03T13:41:39.212Z,1016.62
2018-11-03T13:42:39.234Z,1016.61
2018-11-03T13:43:39.259Z,1016.58
2018-11-03T13:44:39.259Z,1016.57
2018-11-03T13:45:39.396Z,1016.59
2018-11-03T13:46:39.316Z,1016.59
2018-11-03T13:47:39.391Z,1016.61
2018-11-03T13:48:39.347Z,1016.57
2018-11-03T13:49:39.360Z,1016.65
2018-11-03T13:50:39.372Z,1016.62
2018-11-03T13:51:39.393Z,1016.62
2018-11-03T13:52:39.409Z,1016.63
2018-11-03T13:53:39.428Z,1016.64
2018-11-03T13:54:39.456Z,1016.63
2018-11-03T13:55:39.480Z,1016.65
2018-11-03T13:56:39.493Z,1016.66
2018-11-03T13:57:39.508Z,1016.65
2018-11-03T13:58:39.554Z,1016.66
2018-11-03T13:59:39.541Z,1016.62
2018-11-03T14:00:39.571Z,1016.67
2018-11-03T14:01:39.588Z,1016.67
2018-11-03T14:02:39.602Z,1016.68
2018-11-03T14:03:39.616Z,1016.68
2018-11-03T14:04:39.631Z,1016.65
2018-11-03T14:05:39.666Z,1016.68
2018-11-03T14:06:39.681Z,1016.67
2018-11-03T14:07:39.692Z,1016.68
2018-11-03T14:08:39.707Z,1016.70
2018-11-03T14:09:39.732Z,1016.70
2018-11-03T14:10:39.742Z,1016.75
2018-11-03T14:11:39.765Z,1016.74
2018-11-03T14:12:39.784Z,1016.74
2018-11-03T14:13:39.804Z,1016.74
2018-11-03T14:14:39.814Z,1016.74
2018-11-03T14:15:39.973Z,1016.73
2018-11-03T14:16:39.855Z,1016.76
2018-11-03T14:17:39.869Z,1016.79
2018-11-03T14:18:39.885Z,1016.80
2018-11-03T14:19:39.905Z,1016.75
2018-11-03T14:20:39.926Z,1016.79
2018-11-03T14:21:39.947Z,1016.81
2018-11-03T14:22:39.991Z,1016.81
2018-11-03T14:23:39.990Z,1016.79
2018-11-03T14:24:40.001Z,1016.81
2018-11-03T14:25:40.016Z,1016.82
2018-11-03T14:26:40.032Z,1016.80
2018-11-03T14:27:40.096Z,1016.81
2018-11-03T14:28:40.096Z,1016.79
2018-11-03T14:29:40.221Z,1016.85
2018-11-03T14:30:40.147Z,1016.82
2018-11-03T14:31:40.131Z,1016.82
2018-11-03T14:32:40.139Z,1016.77
2018-11-03T14:33:40.167Z,1016.80
2018-11-03T14:34:40.184Z,1016.78
2018-11-03T14:35:40.199Z,1016.78
2018-11-03T14:36:40.214Z,1016.76
2018-11-03T14:37:40.241Z,1016.77
2018-11-03T14:38:40.252Z,1016.81
2018-11-03T14:39:40.273Z,1016.78
2018-11-03T14:40:40.290Z,1016.77
2018-11-03T14:41:40.313Z,1016.77
2018-11-03T14:42:40.326Z,1016.78
2018-11-03T14:43:40.341Z,1016.75
2018-11-03T14:44:40.425Z,1016.74
2018-11-03T14:45:40.377Z,1016.75
2018-11-03T14:46:40.400Z,1016.73
2018-11-03T14:47:40.417Z,1016.71
2018-11-03T14:48:40.433Z,1016.73
2018-11-03T14:49:40.463Z,1016.66
2018-11-03T14:50:40.490Z,1016.71
2018-11-03T14:51:40.495Z,1016.71
2018-11-03T14:52:40.514Z,1016.72
2018-11-03T14:53:40.530Z,1016.73
2018-11-03T14:54:40.555Z,1016.75
2018-11-03T14:55:40.569Z,1016.71
2018-11-03T14:56:40.647Z,1016.75
2018-11-03T14:57:40.605Z,1016.72
2018-11-03T14:58:40.624Z,1016.73
2018-11-03T14:59:40.648Z,1016.74
2018-11-03T15:00:40.656Z,1016.69
2018-11-03T15:01:40.672Z,1016.71
2018-11-03T15:02:40.694Z,1016.70
2018-11-03T15:03:40.704Z,1016.70
2018-11-03T15:04:40.723Z,1016.69
2018-11-03T15:05:40.745Z,1016.70
2018-11-03T15:06:40.766Z,1016.67
2018-11-03T15:07:40.780Z,1016.67
2018-11-03T15:08:40.877Z,1016.68
2018-11-03T15:09:40.821Z,1016.68
2018-11-03T15:10:40.834Z,1016.64
2018-11-03T15:11:40.858Z,1016.64
2018-11-03T15:12:40.879Z,1016.67
2018-11-03T15:13:40.923Z,1016.66
2018-11-03T15:14:40.955Z,1016.64
2018-11-03T15:15:40.921Z,1016.67
2018-11-03T15:16:41.012Z,1016.65
2018-11-03T15:17:40.958Z,1016.64
2018-11-03T15:18:41.842Z,1016.62
2018-11-03T15:19:40.994Z,1016.57
2018-11-03T15:20:41.011Z,1016.59
2018-11-03T15:21:41.028Z,1016.56
2018-11-03T15:22:41.058Z,1016.57
2018-11-03T15:23:41.133Z,1016.54
2018-11-03T15:24:41.091Z,1016.56
2018-11-03T15:25:41.116Z,1016.55
2018-11-03T15:26:41.127Z,1016.54
2018-11-03T15:27:41.142Z,1016.52
2018-11-03T15:28:41.164Z,1016.54
2018-11-03T15:29:41.175Z,1016.57
2018-11-03T15:30:42.137Z,1016.57
2018-11-03T15:31:41.210Z,1016.60
2018-11-03T15:32:41.228Z,1016.57
2018-11-03T15:33:41.251Z,1016.54
2018-11-03T15:34:41.265Z,1016.56
2018-11-03T15:35:41.290Z,1016.54
2018-11-03T15:36:41.315Z,1016.55
2018-11-03T15:37:41.347Z,1016.56
2018-11-03T15:38:41.341Z,1016.56
2018-11-03T15:39:41.355Z,1016.57
2018-11-03T15:40:41.379Z,1016.57
2018-11-03T15:41:41.391Z,1016.57
2018-11-03T15:42:41.425Z,1016.56
2018-11-03T15:43:41.431Z,1016.54
2018-11-03T15:44:42.148Z,1016.56
2018-11-03T15:45:41.473Z,1016.59
2018-11-03T15:46:41.491Z,1016.58
2018-11-03T15:47:41.530Z,1016.55
2018-11-03T15:48:41.520Z,1016.56
2018-11-03T15:49:41.544Z,1016.55
2018-11-03T15:50:41.583Z,1016.52
2018-11-03T15:51:41.582Z,1016.53
2018-11-03T15:52:41.620Z,1016.52
2018-11-03T15:53:42.158Z,1016.55
2018-11-03T15:54:41.647Z,1016.53
2018-11-03T15:55:41.646Z,1016.49
2018-11-03T15:56:41.666Z,1016.53
2018-11-03T15:57:41.684Z,1016.51
2018-11-03T15:58:41.701Z,1016.49
2018-11-03T15:59:41.719Z,1016.49
2018-11-03T16:00:41.738Z,1016.48
2018-11-03T16:01:41.764Z,1016.48
2018-11-03T16:02:41.835Z,1016.48
2018-11-03T16:03:41.798Z,1016.47
2018-11-03T16:04:41.819Z,1016.49
2018-11-03T16:05:41.834Z,1016.47
2018-11-03T16:06:41.849Z,1016.46
2018-11-03T16:07:41.868Z,1016.48
2018-11-03T16:08:41.888Z,1016.47
2018-11-03T16:09:41.906Z,1016.50
2018-11-03T16:10:41.941Z,1016.46
2018-11-03T16:11:41.948Z,1016.43
2018-11-03T16:12:42.113Z,1016.45
2018-11-03T16:13:41.979Z,1016.43
2018-11-03T16:14:41.998Z,1016.44
2018-11-03T16:15:42.014Z,1016.38
2018-11-03T16:16:42.032Z,1016.41
2018-11-03T16:17:42.054Z,1016.40
2018-11-03T16:18:42.122Z,1016.40
2018-11-03T16:19:42.178Z,1016.35
2018-11-03T16:20:42.106Z,1016.34
2018-11-03T16:21:42.164Z,1016.34
2018-11-03T16:22:42.222Z,1016.32
2018-11-03T16:23:42.149Z,1016.28
2018-11-03T16:24:42.201Z,1016.27
2018-11-03T16:25:42.197Z,1016.25
2018-11-03T16:26:42.231Z,1016.25
2018-11-03T16:27:42.229Z,1016.25
2018-11-03T16:28:42.243Z,1016.24
2018-11-03T16:29:42.263Z,1016.23
2018-11-03T16:30:42.281Z,1016.20
2018-11-03T16:31:42.302Z,1016.18
2018-11-03T16:32:42.436Z,1016.19
2018-11-03T16:33:42.332Z,1016.16
2018-11-03T16:34:42.353Z,1016.17
2018-11-03T16:35:42.492Z,1016.20
2018-11-03T16:37:42.582Z,1016.15
2018-11-03T16:38:42.609Z,1016.12
2018-11-03T16:39:42.626Z,1016.13
2018-11-03T16:40:42.640Z,1016.12
2018-11-03T16:41:43.432Z,1016.13
2018-11-03T16:42:42.684Z,1016.12
2018-11-03T16:43:43.721Z,1016.15
2018-11-03T16:44:42.718Z,1016.14
2018-11-03T16:45:42.846Z,1016.10
2018-11-03T16:46:42.751Z,1016.10
2018-11-03T16:47:42.768Z,1016.14
2018-11-03T16:48:42.776Z,1016.08
2018-11-03T16:49:43.806Z,1016.08
2018-11-03T16:50:42.819Z,1016.03
2018-11-03T16:51:42.862Z,1016.06
2018-11-03T16:52:42.984Z,1016.06
2018-11-03T16:53:42.875Z,1016.04
2018-11-03T16:54:42.912Z,1016.03
2018-11-03T16:55:43.922Z,1016.00
2018-11-03T16:56:42.922Z,1016.00
2018-11-03T16:57:42.942Z,1016.00
2018-11-03T16:58:43.015Z,1016.01
2018-11-03T16:59:42.982Z,1015.96
2018-11-03T17:00:43.013Z,1015.94
2018-11-03T17:01:44.081Z,1015.93
2018-11-03T17:02:43.038Z,1015.94
2018-11-03T17:03:44.470Z,1015.93
2018-11-03T17:04:43.126Z,1015.90
2018-11-03T17:05:43.089Z,1015.92
2018-11-03T17:06:43.120Z,1015.89
2018-11-03T17:07:44.143Z,1015.87
2018-11-03T17:08:43.158Z,1015.88
2018-11-03T17:09:43.157Z,1015.84
2018-11-03T17:10:43.167Z,1015.87
2018-11-03T17:11:43.186Z,1015.87
2018-11-03T17:12:43.296Z,1015.86
2018-11-03T17:13:44.233Z,1015.85
2018-11-03T17:14:43.239Z,1015.87
2018-11-03T17:15:43.256Z,1015.87
2018-11-03T17:16:43.275Z,1015.85
2018-11-03T17:17:43.301Z,1015.86
2018-11-03T17:18:43.375Z,1015.85
2018-11-03T17:19:44.339Z,1015.84
2018-11-03T17:20:43.348Z,1015.83
2018-11-03T17:21:43.362Z,1015.82
2018-11-03T17:22:43.381Z,1015.79
2018-11-03T17:23:43.403Z,1015.79
2018-11-03T17:24:43.419Z,1015.81
2018-11-03T17:25:44.447Z,1015.80
2018-11-03T17:26:43.461Z,1015.80
2018-11-03T17:27:43.472Z,1015.81
2018-11-03T17:28:43.491Z,1015.81
2018-11-03T17:29:43.511Z,1015.82
2018-11-03T17:30:43.529Z,1015.81
2018-11-03T17:31:44.552Z,1015.81
2018-11-03T17:32:43.563Z,1015.83
2018-11-03T17:33:43.647Z,1015.78
2018-11-03T17:34:43.599Z,1015.81
2018-11-03T17:35:43.618Z,1015.78
2018-11-03T17:36:43.632Z,1015.75
2018-11-03T17:37:44.660Z,1015.75
2018-11-03T17:38:43.668Z,1015.80
2018-11-03T17:39:43.687Z,1015.72
2018-11-03T17:40:43.705Z,1015.74
2018-11-03T17:41:43.727Z,1015.74
2018-11-03T17:42:43.739Z,1015.70
2018-11-03T17:43:44.767Z,1015.71
2018-11-03T17:44:43.776Z,1015.71
2018-11-03T17:45:43.795Z,1015.70
2018-11-03T17:46:43.814Z,1015.70
2018-11-03T17:47:43.828Z,1015.68
2018-11-03T17:48:43.845Z,1015.70
2018-11-03T17:49:44.889Z,1015.72
2018-11-03T17:50:43.886Z,1015.69
2018-11-03T17:51:43.909Z,1015.73
2018-11-03T17:52:43.921Z,1015.71
2018-11-03T17:53:43.939Z,1015.70
2018-11-03T17:54:44.013Z,1015.70
2018-11-03T17:55:44.983Z,1015.69
2018-11-03T17:56:43.992Z,1015.66
2018-11-03T17:57:44.008Z,1015.63
2018-11-03T17:58:44.026Z,1015.67
2018-11-03T17:59:44.045Z,1015.61
2018-11-03T18:00:44.213Z,1015.62
2018-11-03T18:01:45.089Z,1015.60
2018-11-03T18:02:44.101Z,1015.60
2018-11-03T18:03:44.116Z,1015.61
2018-11-03T18:04:44.133Z,1015.57
2018-11-03T18:05:44.199Z,1015.57
2018-11-03T18:06:44.167Z,1015.56
2018-11-03T18:07:45.201Z,1015.57
2018-11-03T18:08:44.207Z,1015.54
2018-11-03T18:09:44.220Z,1015.52
2018-11-03T18:10:44.239Z,1015.54
2018-11-03T18:11:44.258Z,1015.50
2018-11-03T18:12:44.273Z,1015.48
2018-11-03T18:13:45.306Z,1015.45
2018-11-03T18:14:44.314Z,1015.45
2018-11-03T18:15:44.330Z,1015.44
2018-11-03T18:16:44.356Z,1015.40
2018-11-03T18:17:44.367Z,1015.38
2018-11-03T18:18:44.384Z,1015.42
2018-11-03T18:19:45.491Z,1015.36
2018-11-03T18:20:44.417Z,1015.37
2018-11-03T18:21:44.435Z,1015.35
2018-11-03T18:22:44.455Z,1015.34
2018-11-03T18:23:44.472Z,1015.32
2018-11-03T18:24:44.488Z,1015.30
2018-11-03T18:25:45.527Z,1015.32
2018-11-03T18:26:44.530Z,1015.32
2018-11-03T18:27:44.545Z,1015.31
2018-11-03T18:28:44.563Z,1015.29
2018-11-03T18:29:44.622Z,1015.29
2018-11-03T18:30:44.630Z,1015.28
2018-11-03T18:31:45.628Z,1015.27
2018-11-03T18:32:44.670Z,1015.25
2018-11-03T18:33:44.651Z,1015.26
2018-11-03T18:34:44.738Z,1015.26
2018-11-03T18:35:44.683Z,1015.23
2018-11-03T18:36:44.708Z,1015.22
2018-11-03T18:37:45.742Z,1015.23
2018-11-03T18:38:44.741Z,1015.21
2018-11-03T18:39:44.759Z,1015.21
2018-11-03T18:40:44.775Z,1015.20
2018-11-03T18:41:44.899Z,1015.23
2018-11-03T18:42:44.814Z,1015.21
2018-11-03T18:43:45.923Z,1015.20
2018-11-03T18:44:44.846Z,1015.24
2018-11-03T18:45:44.864Z,1015.22
2018-11-03T18:46:44.939Z,1015.21
2018-11-03T18:47:44.899Z,1015.20
2018-11-03T18:48:44.920Z,1015.20
2018-11-03T18:49:45.950Z,1015.15
2018-11-03T18:50:44.955Z,1015.16
2018-11-03T18:51:45.839Z,1015.18
2018-11-03T18:52:44.986Z,1015.13
2018-11-03T18:53:45.007Z,1015.13
2018-11-03T18:54:45.025Z,1015.07
2018-11-03T18:55:46.052Z,1015.09
2018-11-03T18:56:45.059Z,1015.05
2018-11-03T18:57:45.078Z,1015.03
2018-11-03T18:58:45.095Z,1015.05
2018-11-03T18:59:45.111Z,1015.06
2018-11-03T19:00:45.131Z,1015.07
2018-11-03T19:01:46.157Z,1015.05
2018-11-03T19:02:45.164Z,1015.06
2018-11-03T19:03:45.184Z,1015.07
2018-11-03T19:04:45.207Z,1015.05
2018-11-03T19:05:45.222Z,1015.08
2018-11-03T19:06:45.237Z,1015.04
2018-11-03T19:07:46.275Z,1015.08
2018-11-03T19:08:45.271Z,1015.08
2018-11-03T19:09:45.292Z,1015.09
2018-11-03T19:10:45.311Z,1015.08
2018-11-03T19:11:45.333Z,1015.08
2018-11-03T19:12:45.344Z,1015.06
2018-11-03T19:13:46.374Z,1015.06
2018-11-03T19:14:45.382Z,1015.08
2018-11-03T19:15:45.396Z,1015.07
2018-11-03T19:16:45.421Z,1015.08
2018-11-03T19:17:45.447Z,1015.09
2018-11-03T19:18:45.457Z,1015.06
2018-11-03T19:19:46.478Z,1015.05
2018-11-03T19:20:45.485Z,1015.02
2018-11-03T19:21:45.503Z,1015.05
2018-11-03T19:22:45.521Z,1015.02
2018-11-03T19:23:45.595Z,1015.01
2018-11-03T19:24:45.556Z,1015.00
2018-11-03T19:25:46.599Z,1015.03
2018-11-03T19:26:45.593Z,1014.99
2018-11-03T19:27:45.606Z,1015.00
2018-11-03T19:28:45.632Z,1015.00
2018-11-03T19:29:45.744Z,1014.98
2018-11-03T19:30:45.664Z,1014.99
2018-11-03T19:31:46.703Z,1014.96
2018-11-03T19:32:45.710Z,1014.96
2018-11-03T19:33:45.717Z,1014.95
2018-11-03T19:34:45.737Z,1014.93
2018-11-03T19:35:45.750Z,1014.93
2018-11-03T19:36:45.767Z,1014.96
2018-11-03T19:37:46.797Z,1014.96
2018-11-03T19:38:45.807Z,1014.97
2018-11-03T19:39:45.816Z,1014.90
2018-11-03T19:40:45.870Z,1014.94
2018-11-03T19:41:45.952Z,1014.91
2018-11-03T19:42:45.877Z,1014.95
2018-11-03T19:43:46.989Z,1014.91
2018-11-03T19:44:45.912Z,1014.93
2018-11-03T19:45:45.927Z,1014.89
2018-11-03T19:46:45.949Z,1014.88
2018-11-03T19:47:45.958Z,1014.89
2018-11-03T19:48:45.977Z,1014.90
2018-11-03T19:49:47.006Z,1014.89
2018-11-03T19:50:46.013Z,1014.91
2018-11-03T19:51:46.118Z,1014.93
2018-11-03T19:52:46.048Z,1014.92
2018-11-03T19:53:46.065Z,1014.93
2018-11-03T19:54:46.125Z,1014.94
2018-11-03T19:55:47.204Z,1014.97
2018-11-03T19:56:46.116Z,1014.96
2018-11-03T19:57:46.137Z,1014.94
2018-11-03T19:58:46.156Z,1014.93
2018-11-03T19:59:46.168Z,1014.93
2018-11-03T20:00:46.188Z,1014.93
2018-11-03T20:01:47.218Z,1014.92
2018-11-03T20:02:46.259Z,1014.92
2018-11-03T20:03:46.243Z,1014.91
2018-11-03T20:04:46.263Z,1014.91
2018-11-03T20:05:46.279Z,1014.88
2018-11-03T20:06:46.295Z,1014.90
2018-11-03T20:07:47.323Z,1014.88
2018-11-03T20:08:46.329Z,1014.90
2018-11-03T20:09:46.398Z,1014.88
2018-11-03T20:10:46.381Z,1014.93
2018-11-03T20:11:46.381Z,1014.91
2018-11-03T20:12:46.399Z,1014.88
2018-11-03T20:13:47.483Z,1014.87
2018-11-03T20:14:46.432Z,1014.88
2018-11-03T20:15:46.451Z,1014.86
2018-11-03T20:16:46.468Z,1014.86
2018-11-03T20:17:47.408Z,1014.84
2018-11-03T20:18:46.504Z,1014.85
2018-11-03T20:19:47.531Z,1014.83
2018-11-03T20:20:46.537Z,1014.83
2018-11-03T20:21:46.558Z,1014.80
2018-11-03T20:22:46.575Z,1014.82
2018-11-03T20:23:46.589Z,1014.79
2018-11-03T20:24:46.604Z,1014.82
2018-11-03T20:25:47.643Z,1014.80
2018-11-03T20:26:46.642Z,1014.80
2018-11-03T20:27:46.658Z,1014.81
2018-11-03T20:28:46.675Z,1014.80
2018-11-03T20:29:46.693Z,1014.79
2018-11-03T20:30:46.711Z,1014.80
2018-11-03T20:31:47.787Z,1014.79
2018-11-03T20:32:46.746Z,1014.79
2018-11-03T20:33:46.764Z,1014.79
2018-11-03T20:34:46.789Z,1014.77
2018-11-03T20:35:46.797Z,1014.78
2018-11-03T20:36:46.819Z,1014.76
2018-11-03T20:37:47.846Z,1014.76
2018-11-03T20:38:46.849Z,1014.77
2018-11-03T20:39:46.867Z,1014.79
2018-11-03T20:40:46.885Z,1014.78
2018-11-03T20:41:46.970Z,1014.82